Time;durP1;ratioP1;P1;durP2;ratioP2;P2;SDS_P1;SDS_P2;PMS_P1;PMS_P2;Temp;Humidity;BMP_temperature;BMP_pressure;BME280_temperature;BME280_humidity;BME280_pressure;Samples;Min_cycle;Max_cycle;Signal;HPM_P1;HPM_P2
2022/08/03 00:01:16;;;;;;;7.38;4.28;;;;;;;19.71;62.70;99391.63;5075196;28;20390;-57
2022/08/03 00:03:41;;;;;;;13.60;4.30;;;;;;;19.54;63.79;99386.72;5077493;28;20483;-55
2022/08/03 00:06:06;;;;;;;7.97;4.68;;;;;;;19.38;64.48;99397.03;5077792;28;20039;-56
2022/08/03 00:08:32;;;;;;;9.05;4.53;;;;;;;19.22;66.14;99385.63;5076531;28;20025;-56
2022/08/03 00:10:57;;;;;;;9.77;4.88;;;;;;;19.20;65.57;99389.72;5073076;28;20097;-57
2022/08/03 00:13:24;;;;;;;8.90;4.60;;;;;;;19.11;65.63;99389.56;5086063;28;20529;-56
2022/08/03 00:15:49;;;;;;;7.93;4.63;;;;;;;18.93;66.20;99388.47;5073224;28;20016;-56
2022/08/03 00:18:14;;;;;;;8.10;4.53;;;;;;;19.06;65.45;99385.03;5073733;28;20020;-56
2022/08/03 00:20:40;;;;;;;8.95;4.72;;;;;;;19.07;64.70;99383.09;5074019;28;20024;-57
2022/08/03 00:23:06;;;;;;;9.50;4.40;;;;;;;19.25;63.77;99384.22;5074312;28;20016;-56
2022/08/03 00:25:32;;;;;;;12.77;4.38;;;;;;;19.18;65.08;99381.84;5074267;28;20467;-57
2022/08/03 00:27:58;;;;;;;13.43;4.60;;;;;;;19.16;64.31;99387.56;5073606;28;20036;-56
2022/08/03 00:30:23;;;;;;;9.90;4.55;;;;;;;19.11;63.87;99376.78;5072904;28;20024;-57
2022/08/03 00:32:49;;;;;;;9.35;4.70;;;;;;;19.01;64.88;99374.22;5073618;28;20177;-56
2022/08/03 00:35:14;;;;;;;9.57;4.85;;;;;;;18.87;65.89;99368.75;5073888;28;20054;-56
2022/08/03 00:37:40;;;;;;;12.45;4.75;;;;;;;19.00;65.04;99372.63;5072538;28;20024;-55
2022/08/03 00:40:06;;;;;;;9.57;4.68;;;;;;;18.94;64.91;99371.06;5074039;28;20040;-56
2022/08/03 00:42:31;;;;;;;8.55;4.93;;;;;;;18.80;65.47;99371.03;5073759;28;20501;-56
2022/08/03 00:44:56;;;;;;;9.85;4.88;;;;;;;18.68;66.38;99371.41;5073655;28;20039;-56
2022/08/03 00:47:22;;;;;;;8.80;4.55;;;;;;;18.41;68.01;99377.47;5072599;28;20028;-56
2022/08/03 00:49:47;;;;;;;13.75;5.15;;;;;;;18.30;67.88;99371.38;5075872;28;20028;-55
2022/08/03 00:52:13;;;;;;;10.43;5.13;;;;;;;18.48;67.05;99366.25;5073774;28;20021;-56
2022/08/03 00:54:38;;;;;;;8.82;4.82;;;;;;;18.58;66.41;99368.84;5073019;28;20491;-55
2022/08/03 00:57:04;;;;;;;8.02;5.20;;;;;;;18.61;66.73;99376.41;5073762;28;20085;-56
2022/08/03 00:59:29;;;;;;;8.35;4.63;;;;;;;18.29;67.89;99369.72;5073271;28;20379;-56
2022/08/03 01:01:55;;;;;;;7.68;4.90;;;;;;;18.49;67.00;99370.56;5071924;28;20094;-59
2022/08/03 01:04:20;;;;;;;8.32;5.00;;;;;;;18.50;66.74;99369.50;5073352;28;20044;-56
2022/08/03 01:07:02;;;;;;;11.75;4.65;;;;;;;18.51;66.94;99362.97;5073449;28;20375;-58
2022/08/03 01:09:40;;;;;;;9.52;4.88;;;;;;;18.42;67.69;99367.41;5072311;28;20170;-56
2022/08/03 01:12:33;;;;;;;12.98;5.72;;;;;;;18.29;67.83;99358.88;5071876;28;20071;-56
2022/08/03 01:15:02;;;;;;;10.20;4.75;;;;;;;18.36;67.71;99361.25;5069609;28;20051;-55
2022/08/03 01:17:33;;;;;;;10.65;6.43;;;;;;;18.30;67.65;99362.41;5073074;28;20490;-55
2022/08/03 01:20:09;;;;;;;7.97;5.15;;;;;;;18.23;68.22;99362.75;5055489;28;20032;-55
2022/08/03 01:23:12;;;;;;;8.68;5.07;;;;;;;18.26;67.63;99362.19;5087693;28;20064;-56
2022/08/03 01:25:38;;;;;;;8.15;4.95;;;;;;;18.41;67.37;99357.66;5072874;28;20043;-56
2022/08/03 01:28:14;;;;;;;7.43;5.00;;;;;;;18.36;67.38;99353.09;5072918;28;20033;-55
2022/08/03 01:30:39;;;;;;;8.38;4.82;;;;;;;18.36;67.81;99353.09;5073114;28;20020;-56
2022/08/03 01:33:14;;;;;;;7.85;5.60;;;;;;;18.26;68.02;99353.22;5071040;28;20615;-58
2022/08/03 01:35:42;;;;;;;10.13;5.35;;;;;;;18.16;68.37;99353.34;5071827;28;20040;-56
2022/08/03 01:38:14;;;;;;;12.48;5.70;;;;;;;18.13;68.81;99360.19;5088291;28;20123;-58
2022/08/03 01:40:40;;;;;;;12.73;5.25;;;;;;;18.03;69.53;99355.66;5072269;28;20646;-57
2022/08/03 01:43:06;;;;;;;7.72;5.22;;;;;;;17.95;69.55;99348.19;5072708;28;20095;-57
2022/08/03 01:45:32;;;;;;;7.07;5.20;;;;;;;18.05;69.01;99348.06;5055068;28;20115;-58
2022/08/03 01:47:57;;;;;;;10.65;5.63;;;;;;;18.04;69.36;99356.47;5054150;28;20489;-58
2022/08/03 01:50:26;;;;;;;7.45;5.13;;;;;;;18.14;69.35;99350.94;5071178;28;20097;-57
2022/08/03 01:52:51;;;;;;;9.52;5.10;;;;;;;18.07;69.55;99348.59;5054960;28;20030;-58
2022/08/03 01:55:17;;;;;;;11.60;5.65;;;;;;;17.92;70.26;99347.94;5075387;28;20402;-56
2022/08/03 01:57:43;;;;;;;10.05;5.13;;;;;;;17.95;69.95;99342.75;5061620;28;20426;-56
2022/08/03 02:00:09;;;;;;;10.45;5.68;;;;;;;18.00;69.42;99352.75;5072293;28;20478;-57
2022/08/03 02:02:35;;;;;;;14.00;5.80;;;;;;;17.90;70.19;99345.53;5078543;28;20466;-56
2022/08/03 02:05:00;;;;;;;8.57;5.65;;;;;;;17.91;70.53;99343.63;5070499;28;20388;-57
2022/08/03 02:07:26;;;;;;;9.35;5.57;;;;;;;17.92;69.96;99345.22;5072122;28;20385;-57
2022/08/03 02:09:51;;;;;;;11.38;5.90;;;;;;;17.83;70.37;99340.44;5054144;28;20380;-57
2022/08/03 02:12:17;;;;;;;10.15;5.53;;;;;;;17.85;70.34;99346.38;5072357;28;20352;-57
2022/08/03 02:14:43;;;;;;;10.48;5.63;;;;;;;17.76;71.15;99345.34;5053711;28;20403;-57
2022/08/03 02:17:08;;;;;;;13.77;6.50;;;;;;;17.54;71.63;99334.19;5074344;28;20032;-57
2022/08/03 02:19:34;;;;;;;10.88;5.65;;;;;;;17.52;72.00;99339.09;5070381;28;20032;-58
2022/08/03 02:21:59;;;;;;;12.00;5.57;;;;;;;17.55;71.99;99338.53;5076346;28;20035;-57
2022/08/03 02:24:25;;;;;;;18.38;6.22;;;;;;;17.66;71.39;99345.47;5059640;28;20020;-57
2022/08/03 02:26:51;;;;;;;12.73;5.32;;;;;;;17.42;72.46;99348.13;5072201;28;20021;-58
2022/08/03 02:29:20;;;;;;;11.52;6.05;;;;;;;17.28;72.46;99345.25;5057813;28;20055;-58
2022/08/03 02:31:45;;;;;;;10.55;6.03;;;;;;;17.19;72.89;99336.13;5080119;28;20386;-58
2022/08/03 02:34:12;;;;;;;15.55;5.75;;;;;;;17.22;72.44;99340.97;5071919;28;20024;-56
2022/08/03 02:36:38;;;;;;;11.05;5.80;;;;;;;17.32;72.71;99337.38;5072021;28;20024;-56
2022/08/03 02:39:06;;;;;;;10.02;6.15;;;;;;;17.40;72.21;99343.00;5088040;28;20031;-55
2022/08/03 02:41:36;;;;;;;12.02;6.03;;;;;;;17.35;72.36;99334.13;5053956;28;20387;-56
2022/08/03 02:44:02;;;;;;;11.25;6.43;;;;;;;17.28;72.74;99333.63;5058154;28;20138;-55
2022/08/03 02:46:31;;;;;;;13.63;6.35;;;;;;;17.20;73.61;99337.75;5054837;28;20024;-55
2022/08/03 02:48:56;;;;;;;9.23;6.20;;;;;;;17.09;73.81;99336.22;5069720;28;20463;-57
2022/08/03 02:51:22;;;;;;;14.57;6.07;;;;;;;17.10;73.94;99327.81;5053712;28;20037;-55
2022/08/03 02:53:47;;;;;;;17.00;6.68;;;;;;;17.12;73.75;99332.94;5071784;28;20070;-55
2022/08/03 02:56:13;;;;;;;13.15;6.60;;;;;;;17.13;73.41;99337.25;5074733;28;20366;-56
2022/08/03 02:58:39;;;;;;;14.00;6.28;;;;;;;17.21;73.31;99332.03;5074386;28;20182;-56
2022/08/03 03:01:05;;;;;;;10.00;6.03;;;;;;;17.25;72.92;99337.72;5074602;28;20051;-56
2022/08/03 03:03:30;;;;;;;19.05;6.15;;;;;;;17.19;72.77;99336.13;5073613;28;20420;-56
2022/08/03 03:05:55;;;;;;;11.25;6.70;;;;;;;17.19;73.43;99330.69;5074596;28;20025;-55
2022/08/03 03:08:21;;;;;;;11.10;6.50;;;;;;;17.22;73.11;99332.84;5074356;28;20024;-56
2022/08/03 03:10:46;;;;;;;13.30;6.80;;;;;;;17.03;73.56;99330.84;5057530;28;20124;-57
2022/08/03 03:13:13;;;;;;;11.52;7.10;;;;;;;16.87;74.17;99339.34;5064932;28;20466;-55
2022/08/03 03:15:38;;;;;;;12.30;6.93;;;;;;;16.53;75.78;99335.47;5074215;28;20020;-56
2022/08/03 03:18:05;;;;;;;12.15;6.47;;;;;;;16.75;75.55;99331.56;5074980;28;20029;-55
2022/08/03 03:20:31;;;;;;;12.63;6.95;;;;;;;16.92;74.33;99329.28;5073894;28;20360;-57
2022/08/03 03:23:00;;;;;;;12.77;6.65;;;;;;;16.91;74.19;99333.09;5068441;28;20063;-55
2022/08/03 03:25:25;;;;;;;11.65;6.75;;;;;;;16.88;74.36;99336.34;5074041;28;20425;-57
2022/08/03 03:27:51;;;;;;;14.13;6.68;;;;;;;16.97;74.29;99328.44;5073969;28;20024;-56
2022/08/03 03:30:16;;;;;;;12.15;6.38;;;;;;;16.90;73.62;99328.78;5073913;28;20481;-58
2022/08/03 03:32:42;;;;;;;10.15;6.57;;;;;;;16.79;74.39;99327.22;5078184;28;20359;-56
2022/08/03 03:35:08;;;;;;;11.13;6.72;;;;;;;16.80;74.33;99340.47;5073622;28;20044;-56
2022/08/03 03:37:33;;;;;;;12.73;6.68;;;;;;;16.63;75.85;99344.63;5063776;28;20110;-56
2022/08/03 03:39:58;;;;;;;11.32;6.80;;;;;;;16.71;75.96;99342.13;5074898;28;20017;-55
2022/08/03 03:42:24;;;;;;;12.02;6.38;;;;;;;16.81;75.42;99336.66;5056810;28;20025;-56
2022/08/03 03:44:50;;;;;;;14.18;7.47;;;;;;;16.77;75.29;99338.31;5074676;28;20036;-56
2022/08/03 03:47:15;;;;;;;11.98;6.38;;;;;;;16.85;74.88;99333.38;5062955;28;20017;-56
2022/08/03 03:49:41;;;;;;;12.65;6.63;;;;;;;16.90;74.35;99328.78;5074241;28;20025;-56
2022/08/03 03:52:07;;;;;;;11.65;6.93;;;;;;;16.51;75.30;99344.94;5073399;28;20021;-56
2022/08/03 03:54:42;;;;;;;9.80;6.85;;;;;;;16.53;75.87;99335.47;5074939;28;20031;-56
2022/08/03 03:57:09;;;;;;;16.30;7.13;;;;;;;16.62;75.76;99338.38;5074577;28;20498;-57
2022/08/03 03:59:37;;;;;;;13.88;7.10;;;;;;;16.74;75.42;99338.03;5074919;28;20386;-57
2022/08/03 04:02:04;;;;;;;13.88;7.20;;;;;;;16.68;75.77;99336.47;5076090;28;20107;-56
2022/08/03 04:12:44;;;;;;;14.48;7.13;;;;;;;16.68;76.20;99347.28;5062902;28;20109;-56
2022/08/03 04:15:09;;;;;;;11.68;7.10;;;;;;;17.26;73.77;99339.31;5073087;28;20044;-56
2022/08/03 04:17:35;;;;;;;12.25;6.88;;;;;;;18.27;69.54;99344.81;5056258;28;20086;-57
2022/08/03 04:20:00;;;;;;;13.85;6.88;;;;;;;19.29;66.05;99349.88;5056278;28;20016;-57
2022/08/03 04:22:26;;;;;;;16.40;6.70;;;;;;;19.75;63.87;99349.94;5074192;28;20032;-58
2022/08/03 04:24:59;;;;;;;9.85;6.15;;;;;;;19.95;63.14;99354.19;5056630;28;20016;-58
2022/08/03 04:27:25;;;;;;;13.27;5.68;;;;;;;19.20;64.97;99348.97;5056315;28;20394;-57
2022/08/03 04:29:51;;;;;;;9.57;5.90;;;;;;;18.88;66.04;99348.63;5056220;28;20033;-56
2022/08/03 04:32:17;;;;;;;14.55;6.15;;;;;;;18.88;66.34;99343.19;5074185;28;20063;-55
2022/08/03 04:34:43;;;;;;;15.02;6.45;;;;;;;20.17;62.34;99344.53;5054918;28;20030;-56
2022/08/03 04:37:11;;;;;;;12.82;5.90;;;;;;;21.84;57.39;99345.53;5072675;28;20035;-56
2022/08/03 04:39:36;;;;;;;13.05;5.88;;;;;;;21.91;55.89;99354.09;5072685;28;20028;-58
2022/08/03 04:42:03;;;;;;;17.98;6.38;;;;;;;22.80;53.38;99349.34;5072690;28;20027;-56
2022/08/03 04:44:29;;;;;;;17.77;6.03;;;;;;;22.88;52.72;99353.22;5073851;28;20032;-56
2022/08/03 04:46:55;;;;;;;9.88;5.38;;;;;;;23.30;52.11;99361.75;5056027;28;20043;-56
2022/08/03 04:49:20;;;;;;;13.63;5.40;;;;;;;24.33;50.40;99352.38;5071253;28;20074;-56
2022/08/03 04:51:47;;;;;;;12.90;5.18;;;;;;;24.22;49.83;99364.88;5073628;28;20409;-57
2022/08/03 04:54:12;;;;;;;13.77;5.80;;;;;;;25.57;46.53;99368.38;5072516;28;20395;-57
2022/08/03 04:56:44;;;;;;;8.73;5.35;;;;;;;24.54;48.12;99365.38;5073730;28;20123;-56
2022/08/03 04:59:10;;;;;;;12.00;5.25;;;;;;;24.45;48.51;99362.66;5072847;28;20429;-57
2022/08/03 05:01:35;;;;;;;11.05;5.60;;;;;;;24.81;47.58;99368.72;5073546;28;20039;-56
2022/08/03 05:04:01;;;;;;;22.30;5.50;;;;;;;25.48;46.23;99367.66;5072836;28;20078;-56
2022/08/03 05:06:26;;;;;;;11.45;5.75;;;;;;;25.97;45.39;99365.03;5072760;28;20082;-56
2022/08/03 05:08:52;;;;;;;9.98;4.97;;;;;;;26.04;44.42;99376.28;5073930;28;20027;-56
2022/08/03 05:11:17;;;;;;;12.60;5.40;;;;;;;26.67;43.48;99377.88;5073315;28;20088;-58
2022/08/03 05:13:43;;;;;;;11.48;5.50;;;;;;;26.29;44.21;99381.78;5073608;28;20031;-57
2022/08/03 05:16:09;;;;;;;14.02;5.95;;;;;;;26.46;43.67;99378.00;5072498;28;20035;-55
2022/08/03 05:18:34;;;;;;;12.43;5.32;;;;;;;25.79;45.14;99374.59;5075355;28;20036;-56
2022/08/03 05:21:00;;;;;;;13.38;5.60;;;;;;;26.36;43.47;99381.19;5072966;28;20017;-57
2022/08/03 05:23:25;;;;;;;11.10;5.47;;;;;;;27.17;43.11;99375.78;5072973;28;20020;-57
2022/08/03 05:25:51;;;;;;;12.10;5.13;;;;;;;27.71;41.47;99386.34;5073587;28;20783;-57
2022/08/03 05:28:16;;;;;;;8.90;5.25;;;;;;;27.96;41.25;99379.53;5072832;28;20074;-56
2022/08/03 05:30:42;;;;;;;10.75;5.13;;;;;;;27.54;41.80;99382.75;5073186;28;20031;-57
2022/08/03 05:33:07;;;;;;;8.95;4.90;;;;;;;28.60;40.30;99390.50;5070927;28;20463;-57
2022/08/03 05:35:34;;;;;;;11.45;5.10;;;;;;;28.34;40.95;99378.06;5072961;28;20037;-57
2022/08/03 05:38:01;;;;;;;11.05;5.53;;;;;;;28.35;40.74;99382.41;5072742;28;20107;-57
2022/08/03 05:40:26;;;;;;;11.18;4.97;;;;;;;29.67;38.74;99387.22;5072971;28;20031;-56
2022/08/03 05:42:52;;;;;;;7.35;4.82;;;;;;;29.65;38.04;99383.19;5078786;28;20352;-57
2022/08/03 05:45:17;;;;;;;9.52;4.80;;;;;;;28.19;40.81;99387.16;5072994;28;20481;-56
2022/08/03 05:47:43;;;;;;;11.25;5.00;;;;;;;28.55;40.40;99383.31;5078167;28;20036;-56
2022/08/03 05:50:13;;;;;;;8.93;4.88;;;;;;;29.26;39.09;99386.03;5078844;28;20538;-55
2022/08/03 05:52:39;;;;;;;14.73;4.38;;;;;;;29.43;38.37;99382.00;5072576;28;20024;-55
2022/08/03 05:55:08;;;;;;;12.52;4.60;;;;;;;29.96;37.93;99381.41;5072711;28;20025;-56
2022/08/03 05:57:33;;;;;;;30.75;5.78;;;;;;;29.99;37.33;99383.44;5072615;28;20021;-56
2022/08/03 05:59:59;;;;;;;49.30;5.60;;;;;;;30.00;37.72;99387.78;5072506;28;20352;-56
2022/08/03 06:02:27;;;;;;;11.20;4.78;;;;;;;30.11;37.50;99386.00;5072413;28;20020;-54
2022/08/03 06:04:53;;;;;;;;;;;;;;;30.59;36.37;99386.38;5077268;28;20556;-56
2022/08/03 06:07:18;;;;;;;13.98;4.72;;;;;;;30.65;36.69;99382.13;5072130;28;19916;-55
2022/08/03 06:09:44;;;;;;;9.80;4.32;;;;;;;30.81;36.92;99389.44;5077379;28;20023;-56
2022/08/03 06:12:09;;;;;;;5.80;3.97;;;;;;;29.54;38.79;99393.25;5072300;28;20459;-54
2022/08/03 06:14:35;;;;;;;6.45;4.22;;;;;;;29.73;38.56;99390.50;5072103;28;20028;-55
2022/08/03 06:17:00;;;;;;;6.15;3.80;;;;;;;30.82;36.77;99396.56;5072249;28;20029;-56
2022/08/03 06:19:26;;;;;;;12.45;4.22;;;;;;;31.31;36.44;99398.41;5071798;28;20074;-56
2022/08/03 06:21:51;;;;;;;10.10;4.03;;;;;;;31.88;35.30;99390.69;5071974;28;20037;-57
2022/08/03 06:24:17;;;;;;;12.93;3.83;;;;;;;32.20;34.66;99392.94;5072853;28;20032;-57
2022/08/03 06:26:42;;;;;;;7.18;4.10;;;;;;;31.80;34.89;99386.25;5072209;28;20020;-56
2022/08/03 06:29:08;;;;;;;6.40;4.22;;;;;;;31.64;35.70;99394.03;5072126;28;20031;-56
2022/08/03 06:31:33;;;;;;;6.47;3.67;;;;;;;32.72;34.03;99393.72;5078134;28;20130;-56
2022/08/03 06:33:59;;;;;;;9.55;4.00;;;;;;;31.41;35.65;99392.22;5084273;28;20021;-55
2022/08/03 06:36:30;;;;;;;14.85;3.97;;;;;;;31.95;35.13;99403.84;5070803;28;20036;-57
2022/08/03 06:38:56;;;;;;;9.13;3.90;;;;;;;31.86;35.10;99390.28;5072106;28;20029;-57
2022/08/03 06:41:22;;;;;;;9.07;3.90;;;;;;;31.03;35.30;99387.75;5089598;28;20032;-57
2022/08/03 06:43:47;;;;;;;6.63;3.53;;;;;;;29.80;37.70;99389.81;5071876;28;20995;-57
2022/08/03 06:46:12;;;;;;;5.57;3.60;;;;;;;31.86;34.62;99390.28;5071862;28;20086;-57
2022/08/03 06:48:38;;;;;;;7.40;3.30;;;;;;;32.50;33.94;99394.78;5071211;28;20037;-57
2022/08/03 06:51:03;;;;;;;10.80;3.60;;;;;;;32.09;34.07;99392.09;5088183;28;20024;-56
2022/08/03 06:53:29;;;;;;;9.43;3.60;;;;;;;32.63;33.25;99398.84;5071770;28;20032;-57
2022/08/03 06:55:54;;;;;;;8.50;3.50;;;;;;;32.42;33.14;99391.94;5071717;28;20033;-56
2022/08/03 06:58:19;;;;;;;13.85;3.78;;;;;;;33.69;32.05;99397.69;5070375;28;20037;-57
2022/08/03 07:00:45;;;;;;;15.18;3.65;;;;;;;33.62;31.94;99397.69;5071577;28;20025;-56
2022/08/03 07:03:10;;;;;;;11.55;3.20;;;;;;;33.53;32.45;99400.03;5071183;28;20031;-57
2022/08/03 07:05:36;;;;;;;6.35;3.15;;;;;;;33.67;32.47;99400.09;5070965;28;20037;-56
2022/08/03 07:08:02;;;;;;;9.23;3.35;;;;;;;32.66;33.49;99400.84;5071758;28;20451;-57
2022/08/03 07:10:27;;;;;;;11.45;3.63;;;;;;;33.94;32.70;99403.28;5070184;28;20051;-57
2022/08/03 07:12:53;;;;;;;12.65;3.30;;;;;;;34.07;31.95;99400.97;5071324;28;20021;-57
2022/08/03 07:15:18;;;;;;;24.30;4.10;;;;;;;34.33;31.44;99401.75;5071250;28;20033;-56
2022/08/03 07:17:44;;;;;;;12.00;3.78;;;;;;;34.82;31.24;99399.28;5070902;28;20067;-57
2022/08/03 07:20:09;;;;;;;24.90;4.18;;;;;;;34.47;31.26;99398.91;5070007;28;20019;-57
2022/08/03 07:22:35;;;;;;;16.70;3.97;;;;;;;33.08;33.43;99407.84;5071772;28;20393;-57
2022/08/03 07:25:00;;;;;;;16.25;4.30;;;;;;;34.21;31.61;99399.38;5071801;28;20028;-57
2022/08/03 07:27:28;;;;;;;8.70;3.65;;;;;;;35.10;30.31;99392.84;5070186;28;20073;-57
2022/08/03 07:29:54;;;;;;;15.40;3.73;;;;;;;34.38;31.55;99404.13;5070107;28;20064;-57
2022/08/03 07:32:19;;;;;;;9.07;3.38;;;;;;;33.46;32.41;99400.81;5071461;28;20331;-56
2022/08/03 07:34:44;;;;;;;7.78;3.40;;;;;;;34.34;31.22;99403.31;5070906;28;20032;-57
2022/08/03 07:37:10;;;;;;;11.48;3.60;;;;;;;32.38;33.63;99399.44;5071485;28;20024;-56
2022/08/03 07:39:35;;;;;;;11.05;3.60;;;;;;;32.70;33.65;99392.53;5071073;28;20060;-56
2022/08/03 07:42:01;;;;;;;13.48;3.75;;;;;;;33.65;32.17;99390.53;5085241;28;20032;-56
2022/08/03 07:44:26;;;;;;;12.80;3.60;;;;;;;34.28;31.12;99393.81;5075425;28;20024;-56
2022/08/03 07:46:52;;;;;;;7.47;3.20;;;;;;;34.26;31.30;99390.63;5075021;28;20029;-56
2022/08/03 07:49:17;;;;;;;8.85;3.42;;;;;;;34.87;30.26;99391.28;5078094;28;20478;-56
2022/08/03 07:51:43;;;;;;;6.05;3.25;;;;;;;34.42;31.03;99388.19;5074904;28;20521;-56
2022/08/03 07:54:09;;;;;;;5.60;3.22;;;;;;;34.77;30.47;99384.59;5073635;28;20029;-56
2022/08/03 07:56:35;;;;;;;6.38;3.67;;;;;;;33.16;32.76;99387.22;5075091;28;20032;-56
2022/08/03 07:59:01;;;;;;;12.75;3.97;;;;;;;34.23;31.49;99391.41;5074710;28;20408;-56
2022/08/03 08:01:27;;;;;;;7.50;3.40;;;;;;;35.23;30.44;99391.19;5074695;28;20032;-56
2022/08/03 08:03:52;;;;;;;14.48;3.50;;;;;;;35.43;29.71;99388.69;5073940;28;20422;-55
2022/08/03 08:06:18;;;;;;;5.63;3.67;;;;;;;36.03;29.85;99387.50;5074906;28;20028;-56
2022/08/03 08:08:43;;;;;;;8.43;3.88;;;;;;;34.80;30.20;99391.34;5073284;28;20463;-56
2022/08/03 08:11:08;;;;;;;11.20;3.60;;;;;;;35.17;29.86;99390.00;5074352;28;20020;-56
2022/08/03 08:13:34;;;;;;;6.15;3.67;;;;;;;35.53;29.69;99389.84;5074343;28;20028;-55
2022/08/03 08:15:59;;;;;;;13.70;3.75;;;;;;;33.49;32.51;99388.13;5075994;28;20036;-56
2022/08/03 08:18:25;;;;;;;14.07;3.92;;;;;;;33.77;32.73;99389.38;5079675;28;20025;-55
2022/08/03 08:20:50;;;;;;;10.75;3.70;;;;;;;33.90;32.51;99391.38;5074265;28;20035;-56
2022/08/03 08:23:21;;;;;;;13.52;3.65;;;;;;;35.24;30.70;99380.84;5079585;28;20064;-56
2022/08/03 08:25:47;;;;;;;12.77;3.70;;;;;;;35.48;29.95;99381.91;5078055;28;20451;-55
2022/08/03 08:28:12;;;;;;;17.08;4.10;;;;;;;34.32;30.73;99389.00;5072884;28;20486;-54
2022/08/03 08:30:38;;;;;;;9.93;3.85;;;;;;;34.27;32.77;99389.41;5074309;28;20047;-55
2022/08/03 08:33:03;;;;;;;13.27;3.95;;;;;;;33.72;32.10;99380.25;5073541;28;20127;-56
2022/08/03 08:35:29;;;;;;;16.77;3.80;;;;;;;32.93;33.23;99379.19;5074033;28;20033;-55
2022/08/03 08:37:54;;;;;;;18.10;3.70;;;;;;;34.00;32.61;99372.31;5074211;28;20036;-55
2022/08/03 08:40:21;;;;;;;11.60;3.80;;;;;;;35.41;30.00;99375.16;5074138;28;20401;-55
2022/08/03 08:42:46;;;;;;;14.68;4.50;;;;;;;34.60;31.12;99370.69;5073563;28;20107;-56
2022/08/03 08:45:14;;;;;;;5.63;3.17;;;;;;;32.14;34.13;99375.88;5072629;28;20328;-56
2022/08/03 08:47:40;;;;;;;5.25;3.08;;;;;;;32.38;33.93;99371.72;5073252;28;20028;-56
2022/08/03 08:50:10;;;;;;;5.65;3.25;;;;;;;33.08;33.06;99372.53;5072050;28;20459;-55
2022/08/03 08:52:35;;;;;;;6.85;3.78;;;;;;;33.73;32.03;99370.72;5073159;28;20024;-56
2022/08/03 08:55:03;;;;;;;7.47;3.30;;;;;;;30.21;35.73;99368.78;5073378;28;20481;-56
2022/08/03 08:57:38;;;;;;;9.35;3.17;;;;;;;30.38;37.27;99361.97;5073494;28;20028;-55
2022/08/03 09:00:09;;;;;;;8.45;3.67;;;;;;;33.89;31.85;99369.53;5072291;28;20029;-54
2022/08/03 09:02:35;;;;;;;7.50;3.13;;;;;;;34.57;30.63;99364.75;5072723;28;20064;-55
2022/08/03 09:05:00;;;;;;;6.40;3.00;;;;;;;34.23;31.42;99358.06;5073247;28;20516;-56
2022/08/03 09:07:26;;;;;;;7.97;3.25;;;;;;;30.67;34.58;99354.84;5076763;28;20036;-54
2022/08/03 09:09:52;;;;;;;7.40;3.20;;;;;;;31.49;34.53;99359.84;5072254;28;20490;-55
2022/08/03 09:12:18;;;;;;;5.00;3.10;;;;;;;30.48;35.46;99360.53;5073193;28;20060;-55
2022/08/03 09:14:44;;;;;;;6.90;3.50;;;;;;;32.61;32.40;99356.81;5072937;28;20048;-54
2022/08/03 09:17:09;;;;;;;9.30;3.55;;;;;;;32.07;33.06;99350.09;5073718;28;20437;-56
2022/08/03 09:19:35;;;;;;;9.10;3.28;;;;;;;31.13;35.34;99346.38;5072833;28;20482;-54
2022/08/03 09:22:09;;;;;;;9.18;3.42;;;;;;;32.01;33.54;99353.22;5073178;28;20020;-55
2022/08/03 09:24:36;;;;;;;7.25;3.30;;;;;;;31.60;34.90;99352.41;5073141;28;20032;-55
2022/08/03 09:27:01;;;;;;;11.02;3.20;;;;;;;31.53;34.01;99349.59;5073211;28;20127;-54
2022/08/03 09:29:27;;;;;;;6.90;3.05;;;;;;;31.02;34.83;99353.75;5072965;28;20463;-55
2022/08/03 09:31:59;;;;;;;11.43;3.13;;;;;;;33.02;32.87;99353.81;5055233;28;20039;-57
2022/08/03 09:34:27;;;;;;;9.82;3.00;;;;;;;32.87;32.56;99347.41;5077329;28;20529;-55
2022/08/03 09:36:53;;;;;;;11.93;3.40;;;;;;;32.91;32.19;99350.22;5072867;28;20024;-55
2022/08/03 09:39:19;;;;;;;9.05;3.50;;;;;;;34.14;30.99;99342.53;5071858;28;20035;-55
2022/08/03 09:41:47;;;;;;;10.50;3.05;;;;;;;35.18;29.92;99349.84;5071494;28;20390;-55
2022/08/03 09:44:12;;;;;;;7.10;2.90;;;;;;;34.69;29.78;99348.81;5072826;28;20032;-56
2022/08/03 09:46:50;;;;;;;12.73;3.00;;;;;;;34.62;30.11;99346.84;5072688;28;20028;-56
2022/08/03 09:49:16;;;;;;;4.57;2.75;;;;;;;35.11;28.46;99349.88;5072065;28;20055;-56
2022/08/03 09:51:42;;;;;;;12.70;2.83;;;;;;;35.28;28.75;99346.19;5071373;28;20033;-56
2022/08/03 09:54:07;;;;;;;8.95;2.85;;;;;;;35.84;27.87;99344.22;5071159;28;20030;-56
2022/08/03 09:56:43;;;;;;;8.27;2.80;;;;;;;34.28;29.16;99349.28;5071368;28;20024;-56
2022/08/03 09:59:10;;;;;;;5.25;2.53;;;;;;;33.28;30.59;99350.78;5071282;28;20020;-55
2022/08/03 10:01:36;;;;;;;4.75;2.65;;;;;;;31.74;32.16;99335.16;5076628;28;20716;-55
2022/08/03 10:04:01;;;;;;;3.72;2.53;;;;;;;33.59;30.54;99337.34;5071465;28;20092;-56
2022/08/03 10:06:27;;;;;;;7.00;2.60;;;;;;;33.80;30.19;99331.03;5072107;28;20056;-55
2022/08/03 10:09:09;;;;;;;6.97;2.63;;;;;;;32.69;30.67;99330.69;5076922;28;20020;-55
2022/08/03 10:11:35;;;;;;;9.63;2.83;;;;;;;34.19;29.92;99319.09;5072230;28;20063;-55
2022/08/03 10:14:05;;;;;;;5.05;2.60;;;;;;;34.48;29.66;99314.28;5072314;28;20058;-55
2022/08/03 10:16:34;;;;;;;5.10;2.67;;;;;;;33.67;29.74;99322.31;5071863;28;20053;-55
2022/08/03 10:19:00;;;;;;;8.50;2.72;;;;;;;34.38;29.71;99315.09;5076033;28;20024;-56
2022/08/03 10:21:25;;;;;;;12.43;2.80;;;;;;;34.05;29.76;99306.00;5072028;28;20376;-56
2022/08/03 10:23:51;;;;;;;6.00;2.70;;;;;;;33.92;30.02;99310.34;5070958;28;20371;-55
2022/08/03 10:26:17;;;;;;;7.25;2.30;;;;;;;31.98;31.42;99304.09;5070868;28;20478;-55
2022/08/03 10:28:47;;;;;;;13.07;3.22;;;;;;;32.12;32.37;99313.69;5070598;28;20043;-54
2022/08/03 10:31:13;;;;;;;6.75;2.63;;;;;;;33.23;30.68;99303.94;5054389;28;20080;-55
2022/08/03 10:33:42;;;;;;;5.82;2.75;;;;;;;32.82;30.82;99304.19;5053549;28;20036;-54
2022/08/03 10:36:07;;;;;;;9.77;2.88;;;;;;;32.93;31.47;99311.78;5072316;28;20028;-55
2022/08/03 10:38:37;;;;;;;6.32;2.90;;;;;;;34.86;28.89;99295.06;5056284;28;20029;-55
2022/08/03 10:41:02;;;;;;;4.43;2.60;;;;;;;33.64;30.03;99300.84;5071534;28;20016;-54
2022/08/03 10:43:35;;;;;;;5.82;2.65;;;;;;;34.56;28.50;99293.56;5070332;28;20028;-55
2022/08/03 10:46:01;;;;;;;4.95;2.58;;;;;;;34.22;29.80;99287.69;5072342;28;20024;-56
2022/08/03 10:48:26;;;;;;;4.28;2.38;;;;;;;31.36;32.06;99290.84;5068947;28;20472;-55
2022/08/03 10:50:52;;;;;;;7.32;2.97;;;;;;;33.34;30.32;99286.50;5069090;28;20032;-55
2022/08/03 10:53:33;;;;;;;8.32;2.92;;;;;;;31.47;32.77;99279.91;5070991;28;20387;-55
2022/08/03 10:58:46;;;;;;;5.75;2.85;;;;;;;30.47;33.88;99285.06;5070828;28;20085;-52
2022/08/03 11:01:12;;;;;;;8.95;2.65;;;;;;;31.96;32.16;99277.97;5073636;28;20112;-54
2022/08/03 11:03:52;;;;;;;5.68;2.55;;;;;;;31.84;32.31;99270.72;5070800;28;20114;-54
2022/08/03 11:06:23;;;;;;;6.50;3.00;;;;;;;31.05;33.70;99264.47;5072376;28;20111;-54
2022/08/03 11:08:49;;;;;;;7.00;2.90;;;;;;;32.58;31.73;99269.63;5071767;28;20103;-54
2022/08/03 11:11:18;;;;;;;11.85;3.05;;;;;;;31.58;32.63;99268.94;5070335;28;20032;-55
2022/08/03 11:13:55;;;;;;;5.73;2.73;;;;;;;32.41;31.71;99267.53;5076978;28;20044;-54
2022/08/03 11:16:22;;;;;;;6.07;2.70;;;;;;;32.42;31.85;99258.81;5075722;28;20281;-54
2022/08/03 11:18:59;;;;;;;6.57;2.63;;;;;;;33.08;31.09;99263.47;5057298;28;20029;-55
2022/08/03 11:21:49;;;;;;;8.93;2.72;;;;;;;31.95;31.77;99266.09;5057748;28;20044;-54
2022/08/03 11:24:40;;;;;;;6.45;2.70;;;;;;;32.49;30.77;99268.38;5080587;28;20394;-55
2022/08/03 11:27:17;;;;;;;4.03;2.83;;;;;;;32.27;31.95;99262.69;5075547;28;20402;-55
2022/08/03 11:29:56;;;;;;;10.75;2.92;;;;;;;33.67;30.20;99260.34;5079694;28;20084;-55
2022/08/03 11:32:36;;;;;;;4.97;2.90;;;;;;;35.07;28.50;99257.94;5075041;28;20533;-54
2022/08/03 11:35:15;;;;;;;5.80;2.50;;;;;;;35.26;28.00;99255.88;5075074;28;20041;-56
2022/08/03 11:37:55;;;;;;;4.05;2.15;;;;;;;34.99;29.09;99253.63;5075182;28;20138;-55
2022/08/03 11:40:43;;;;;;;7.43;2.67;;;;;;;31.87;31.78;99261.63;5075084;28;20020;-54